Time;durP1;ratioP1;P1;durP2;ratioP2;P2;SDS_P1;SDS_P2;PMS_P1;PMS_P2;Temp;Humidity;BMP_temperature;BMP_pressure;BME280_temperature;BME280_humidity;BME280_pressure;Samples;Min_cycle;Max_cycle;Signal;HPM_P1;HPM_P2
2021/11/30 00:00:55;;;;;;;10.90;5.73;;;4.80;98.10;;;;;;5057323;28;20176;-87
2021/11/30 00:03:21;;;;;;;9.23;5.70;;;4.80;98.20;;;;;;5060763;28;20485;-86
2021/11/30 00:05:48;;;;;;;9.17;5.27;;;4.80;98.40;;;;;;5063555;28;20259;-86
2021/11/30 00:08:15;;;;;;;9.50;5.63;;;4.80;98.30;;;;;;5070711;28;20164;-86
2021/11/30 00:10:48;;;;;;;10.70;5.17;;;4.80;98.30;;;;;;5075552;28;20192;-85
2021/11/30 00:13:20;;;;;;;12.33;5.40;;;4.70;98.20;;;;;;5069348;28;20159;-84
2021/11/30 00:15:48;;;;;;;9.87;5.27;;;4.70;98.50;;;;;;5078099;28;20246;-85
2021/11/30 00:18:14;;;;;;;9.17;5.10;;;4.70;98.20;;;;;;5074865;28;20216;-84
2021/11/30 00:20:46;;;;;;;7.47;4.60;;;4.70;98.00;;;;;;5070491;28;20189;-85
2021/11/30 00:23:13;;;;;;;6.70;4.80;;;4.80;98.30;;;;;;5052316;28;20365;-84
2021/11/30 00:25:43;;;;;;;8.03;4.83;;;4.80;98.10;;;;;;5057907;28;20180;-85
2021/11/30 00:28:09;;;;;;;7.30;4.67;;;4.80;98.20;;;;;;5065793;28;20165;-84
2021/11/30 00:30:37;;;;;;;7.33;4.13;;;4.80;98.20;;;;;;5068870;28;20745;-84
2021/11/30 00:33:04;;;;;;;8.43;4.60;;;4.80;98.30;;;;;;5066544;28;20545;-81
2021/11/30 00:35:31;;;;;;;7.73;4.67;;;4.80;98.30;;;;;;5063973;28;20169;-86
2021/11/30 00:38:02;;;;;;;7.77;4.60;;;4.70;98.50;;;;;;5056138;28;20205;-85
2021/11/30 00:40:33;;;;;;;7.63;3.83;;;4.70;98.80;;;;;;5065164;28;20173;-85
2021/11/30 00:43:09;;;;;;;6.97;4.23;;;4.80;98.70;;;;;;5059908;28;20177;-86
2021/11/30 00:45:47;;;;;;;6.90;3.63;;;4.80;98.90;;;;;;5055523;28;20280;-87
2021/11/30 00:48:19;;;;;;;8.40;4.10;;;4.80;99.00;;;;;;5051567;28;20184;-84
2021/11/30 00:50:47;;;;;;;8.87;3.87;;;4.90;98.70;;;;;;5050209;28;20184;-84
2021/11/30 00:53:14;;;;;;;5.80;3.80;;;5.00;98.40;;;;;;5046856;28;20199;-84
2021/11/30 00:55:40;;;;;;;9.30;4.10;;;4.90;98.00;;;;;;5046605;28;20216;-85
2021/11/30 00:58:08;;;;;;;6.97;3.90;;;5.00;98.10;;;;;;5041121;28;20252;-87
2021/11/30 01:00:35;;;;;;;6.07;3.60;;;5.00;98.40;;;;;;5043668;28;20196;-84
2021/11/30 01:03:06;;;;;;;8.67;3.73;;;5.00;98.60;;;;;;5056804;28;20165;-85
2021/11/30 01:05:34;;;;;;;8.03;3.73;;;5.00;98.40;;;;;;5063946;28;20183;-85
2021/11/30 01:08:00;;;;;;;8.33;3.70;;;5.00;98.60;;;;;;5055672;28;20187;-85
2021/11/30 01:10:26;;;;;;;6.87;3.63;;;5.20;99.10;;;;;;5058951;28;20177;-85
2021/11/30 01:12:52;;;;;;;5.30;3.13;;;5.00;99.00;;;;;;5059620;28;20179;-84
2021/11/30 01:15:20;;;;;;;5.47;3.87;;;5.00;99.30;;;;;;5054975;28;20179;-86
2021/11/30 01:17:46;;;;;;;7.67;3.50;;;5.00;99.60;;;;;;5054742;28;20236;-86
2021/11/30 01:20:12;;;;;;;8.47;3.80;;;5.10;99.50;;;;;;5045976;28;20188;-83
2021/11/30 01:22:40;;;;;;;5.67;3.47;;;5.00;99.70;;;;;;5049304;28;20227;-86
2021/11/30 01:25:07;;;;;;;9.47;4.30;;;5.10;99.90;;;;;;5040438;28;20177;-84
2021/11/30 01:27:33;;;;;;;6.83;3.60;;;5.10;99.90;;;;;;5053016;28;20204;-82
2021/11/30 01:29:58;;;;;;;7.03;3.80;;;4.90;99.90;;;;;;5052882;28;20221;-85
2021/11/30 01:32:24;;;;;;;8.03;3.67;;;5.10;99.90;;;;;;5054263;28;20157;-85
2021/11/30 01:34:50;;;;;;;9.20;3.83;;;5.00;99.90;;;;;;5054256;28;20184;-86
2021/11/30 01:37:16;;;;;;;6.47;3.80;;;5.00;99.90;;;;;;5044327;28;20685;-84
2021/11/30 01:39:47;;;;;;;7.67;3.40;;;5.10;99.90;;;;;;5053992;28;20191;-86
2021/11/30 01:42:14;;;;;;;10.07;3.93;;;5.10;99.90;;;;;;5053944;28;20204;-85
2021/11/30 01:49:37;;;;;;;8.47;3.70;;;5.00;99.90;;;;;;5061375;28;20207;-82
2021/11/30 01:52:08;;;;;;;6.70;3.70;;;5.00;99.90;;;;;;5061368;28;20177;-86
2021/11/30 01:54:39;;;;;;;8.53;4.70;;;4.90;99.90;;;;;;5059095;28;20299;-87
2021/11/30 01:57:06;;;;;;;7.27;3.77;;;5.00;99.90;;;;;;5053528;28;20208;-83
2021/11/30 01:59:32;;;;;;;8.90;4.13;;;4.90;99.90;;;;;;5054771;28;20173;-86
2021/11/30 02:01:58;;;;;;;6.93;3.80;;;4.90;99.90;;;;;;5052973;28;20177;-84
2021/11/30 02:04:24;;;;;;;5.87;3.47;;;5.00;99.90;;;;;;5053205;28;20173;-85
2021/11/30 02:06:49;;;;;;;6.50;3.70;;;5.00;99.90;;;;;;5035991;28;20211;-86
2021/11/30 02:09:15;;;;;;;6.37;3.83;;;4.90;99.90;;;;;;5035370;28;20255;-84
2021/11/30 02:11:41;;;;;;;8.03;3.77;;;5.00;99.90;;;;;;5036468;28;20196;-81
2021/11/30 02:14:06;;;;;;;8.00;4.03;;;4.90;99.90;;;;;;5052945;28;20677;-81
2021/11/30 02:16:32;;;;;;;6.50;3.67;;;5.00;99.90;;;;;;5049887;28;20596;-81
2021/11/30 02:19:01;;;;;;;7.80;4.03;;;4.90;99.90;;;;;;5031385;28;20524;-80
2021/11/30 02:21:33;;;;;;;8.80;4.30;;;5.00;99.90;;;;;;5049144;28;20287;-79
2021/11/30 02:24:00;;;;;;;6.80;4.20;;;5.00;99.90;;;;;;5051154;28;20180;-78
2021/11/30 02:26:27;;;;;;;6.17;3.97;;;5.00;99.90;;;;;;5051111;28;20590;-80
2021/11/30 02:28:56;;;;;;;6.50;4.07;;;4.90;99.90;;;;;;5051318;28;20231;-83
2021/11/30 02:31:28;;;;;;;8.27;4.20;;;4.90;99.90;;;;;;5051856;28;20249;-83
2021/11/30 02:33:54;;;;;;;6.30;4.60;;;5.00;99.90;;;;;;5038294;28;20569;-85
2021/11/30 02:37:07;;;;;;;6.97;4.60;;;5.00;99.90;;;;;;5041631;28;20235;-81
2021/11/30 02:39:26;;;;;;;5.70;4.30;;;5.00;99.90;;;;;;5039630;28;20177;-85
2021/11/30 02:41:55;;;;;;;5.87;4.60;;;5.20;99.90;;;;;;5045556;28;20173;-83
2021/11/30 02:44:23;;;;;;;8.30;4.60;;;5.10;99.90;;;;;;5059562;28;20252;-82
2021/11/30 02:46:59;;;;;;;6.77;4.77;;;5.10;99.90;;;;;;5051868;28;20623;-86
2021/11/30 02:49:28;;;;;;;8.30;5.53;;;5.10;99.90;;;;;;5044381;28;20546;-81
2021/11/30 02:52:05;;;;;;;10.00;5.97;;;5.20;99.90;;;;;;5053641;28;20177;-80
2021/11/30 02:54:31;;;;;;;9.07;6.30;;;5.20;99.90;;;;;;5056008;28;20180;-86
2021/11/30 02:56:58;;;;;;;8.90;6.43;;;5.20;99.90;;;;;;5065544;28;20185;-84
2021/11/30 02:59:27;;;;;;;12.47;6.27;;;5.20;99.90;;;;;;5064085;28;20197;-86
2021/11/30 03:01:58;;;;;;;11.00;6.67;;;5.30;99.90;;;;;;5052670;28;20197;-80
2021/11/30 03:04:24;;;;;;;10.83;6.63;;;5.40;99.90;;;;;;5061745;28;20179;-81
2021/11/30 03:06:53;;;;;;;13.50;6.97;;;5.20;99.90;;;;;;5070226;28;20173;-77
2021/11/30 03:09:18;;;;;;;9.07;6.83;;;5.40;99.90;;;;;;5066216;28;20655;-80
2021/11/30 03:11:45;;;;;;;11.97;7.70;;;5.40;99.90;;;;;;5072587;28;20165;-81
2021/11/30 03:14:11;;;;;;;9.13;7.33;;;5.40;99.90;;;;;;5077369;28;20173;-85
2021/11/30 03:16:37;;;;;;;13.80;8.00;;;5.40;99.90;;;;;;5078184;28;20206;-81
2021/11/30 03:19:04;;;;;;;11.27;7.60;;;5.40;99.90;;;;;;5070364;28;20228;-81
2021/11/30 03:21:32;;;;;;;9.80;8.07;;;5.50;99.90;;;;;;5071636;28;20168;-81
2021/11/30 03:24:01;;;;;;;9.97;8.37;;;5.40;99.90;;;;;;5057855;28;20169;-81
2021/11/30 03:26:27;;;;;;;10.17;8.37;;;5.50;99.90;;;;;;5055736;28;20181;-82
2021/11/30 03:29:23;;;;;;;9.67;8.13;;;5.50;99.90;;;;;;5055633;28;20212;-82
2021/11/30 03:31:58;;;;;;;10.87;9.07;;;5.50;99.90;;;;;;5049731;28;20165;-82
2021/11/30 03:34:23;;;;;;;13.27;9.33;;;5.60;99.90;;;;;;5050498;28;20164;-82
2021/11/30 03:36:53;;;;;;;12.80;9.30;;;5.60;99.90;;;;;;5077304;28;20194;-82
2021/11/30 03:39:23;;;;;;;13.33;9.43;;;5.60;99.90;;;;;;5069994;28;20176;-83
2021/11/30 03:41:50;;;;;;;13.23;10.30;;;5.60;99.90;;;;;;5080323;28;20165;-81
2021/11/30 03:44:19;;;;;;;15.10;10.37;;;5.60;99.90;;;;;;5085625;28;20184;-80
2021/11/30 03:47:00;;;;;;;16.20;11.57;;;5.60;99.90;;;;;;5070468;28;20695;-79
2021/11/30 03:49:28;;;;;;;12.67;10.13;;;5.70;99.90;;;;;;5070871;28;20165;-81
2021/11/30 03:51:54;;;;;;;13.00;11.13;;;5.80;99.90;;;;;;5068530;28;20177;-81
2021/11/30 03:54:20;;;;;;;16.43;12.30;;;5.80;99.90;;;;;;5065759;28;20191;-81
2021/11/30 03:56:47;;;;;;;15.07;12.47;;;5.80;99.90;;;;;;5065122;28;20267;-81
2021/11/30 03:59:16;;;;;;;15.77;12.17;;;5.90;99.90;;;;;;5059519;28;20212;-81
2021/11/30 04:01:43;;;;;;;15.73;13.67;;;5.90;99.90;;;;;;5048073;28;20173;-82
2021/11/30 04:04:23;;;;;;;16.50;12.83;;;5.90;99.90;;;;;;5055755;28;20165;-81
2021/11/30 04:06:57;;;;;;;17.90;13.50;;;6.00;99.90;;;;;;5050118;28;20169;-81
2021/11/30 04:09:26;;;;;;;16.70;13.33;;;6.00;99.90;;;;;;5055961;28;20215;-81
2021/11/30 04:11:53;;;;;;;16.90;14.13;;;6.00;99.90;;;;;;5054325;28;20207;-83
2021/11/30 04:14:20;;;;;;;16.83;13.53;;;6.00;99.90;;;;;;5061227;28;20181;-82
2021/11/30 04:16:47;;;;;;;18.23;15.37;;;6.20;99.90;;;;;;5060473;28;20177;-83
2021/11/30 04:19:14;;;;;;;19.80;14.40;;;6.10;99.90;;;;;;5061286;28;20235;-81
2021/11/30 04:21:40;;;;;;;16.53;14.77;;;6.00;99.90;;;;;;5039202;28;20236;-81
2021/11/30 04:24:05;;;;;;;19.53;16.07;;;6.10;99.90;;;;;;5056875;28;20209;-83
2021/11/30 04:26:31;;;;;;;18.60;15.17;;;6.10;99.90;;;;;;5060907;28;20516;-83
2021/11/30 04:28:57;;;;;;;19.70;14.20;;;6.10;99.90;;;;;;5061688;28;20207;-83
2021/11/30 04:31:24;;;;;;;19.23;15.00;;;6.10;99.90;;;;;;5055336;28;20192;-81
2021/11/30 04:33:50;;;;;;;16.57;14.03;;;6.10;99.90;;;;;;5054620;28;20585;-82
2021/11/30 04:36:15;;;;;;;18.70;15.20;;;6.20;99.90;;;;;;5038723;28;20578;-82
2021/11/30 04:38:41;;;;;;;19.33;14.77;;;6.10;99.90;;;;;;5047314;28;20703;-82
2021/11/30 04:41:07;;;;;;;19.03;15.30;;;6.10;99.90;;;;;;5057240;28;20165;-81
2021/11/30 04:43:36;;;;;;;18.37;15.40;;;6.20;99.90;;;;;;5054451;28;20168;-81
2021/11/30 04:46:22;;;;;;;20.17;15.80;;;6.20;99.90;;;;;;5053892;28;20177;-81
2021/11/30 04:48:57;;;;;;;22.97;16.37;;;6.30;99.90;;;;;;5055282;28;20204;-81
2021/11/30 04:51:28;;;;;;;20.10;15.57;;;6.30;99.90;;;;;;5055659;28;20917;-82
2021/11/30 04:53:54;;;;;;;19.63;15.07;;;6.40;99.90;;;;;;5053959;28;20176;-81
2021/11/30 04:56:21;;;;;;;18.90;16.87;;;6.40;99.90;;;;;;5053848;28;20173;-82
2021/11/30 04:58:47;;;;;;;23.17;17.40;;;6.40;99.90;;;;;;5053140;28;20219;-80
2021/11/30 05:01:13;;;;;;;20.07;16.63;;;6.50;99.90;;;;;;5054890;28;20169;-81
2021/11/30 05:03:39;;;;;;;20.63;17.50;;;6.60;99.90;;;;;;5054421;28;20222;-81
2021/11/30 05:06:06;;;;;;;21.93;16.47;;;6.50;99.90;;;;;;5052607;28;20584;-82
2021/11/30 05:08:33;;;;;;;21.17;17.43;;;6.50;99.90;;;;;;5053104;28;20264;-81
2021/11/30 05:10:59;;;;;;;22.93;17.60;;;6.50;99.90;;;;;;5053199;28;20173;-81
2021/11/30 05:13:24;;;;;;;22.63;18.47;;;6.60;99.90;;;;;;5054346;28;20255;-81
2021/11/30 05:15:50;;;;;;;20.93;17.53;;;6.60;99.90;;;;;;5054585;28;20167;-80
2021/11/30 05:18:16;;;;;;;21.97;17.33;;;6.50;99.90;;;;;;5053135;28;20201;-81
2021/11/30 05:20:44;;;;;;;21.23;17.57;;;6.70;99.90;;;;;;5053127;28;20177;-82
2021/11/30 05:23:14;;;;;;;24.00;18.97;;;6.60;99.90;;;;;;5054396;28;20200;-86
2021/11/30 05:25:41;;;;;;;20.83;18.30;;;6.60;99.90;;;;;;5053992;28;20173;-83
2021/11/30 05:28:07;;;;;;;22.07;16.87;;;6.60;99.90;;;;;;5055894;28;20236;-87
2021/11/30 05:30:38;;;;;;;23.70;18.30;;;6.50;99.90;;;;;;5055981;28;20640;-84
2021/11/30 05:33:08;;;;;;;19.70;17.07;;;6.60;99.90;;;;;;5054662;28;20248;-83
2021/11/30 05:35:35;;;;;;;21.33;18.20;;;6.60;99.90;;;;;;5054797;28;20234;-85
2021/11/30 05:38:01;;;;;;;21.30;16.33;;;6.70;99.90;;;;;;5053268;28;20211;-84
2021/11/30 05:40:27;;;;;;;22.10;16.77;;;6.60;99.90;;;;;;5052879;28;20165;-83
2021/11/30 05:42:54;;;;;;;20.83;17.37;;;6.70;99.90;;;;;;5059804;28;20700;-87
2021/11/30 05:45:19;;;;;;;23.17;17.17;;;6.70;99.90;;;;;;5074513;28;20534;-84
2021/11/30 05:47:46;;;;;;;23.83;17.50;;;6.60;99.90;;;;;;5074102;28;20671;-83
2021/11/30 05:50:12;;;;;;;22.23;17.37;;;6.80;99.90;;;;;;5073948;28;20214;-87
2021/11/30 05:52:40;;;;;;;22.13;16.20;;;6.70;99.90;;;;;;5072913;28;20172;-86
2021/11/30 05:55:06;;;;;;;21.87;17.13;;;6.80;99.90;;;;;;5073299;28;20666;-85
2021/11/30 05:57:32;;;;;;;17.97;15.43;;;6.80;99.90;;;;;;5073186;28;20299;-86
2021/11/30 06:00:00;;;;;;;19.37;16.33;;;6.80;99.90;;;;;;5075565;28;20196;-86
2021/11/30 06:02:30;;;;;;;18.80;15.73;;;6.80;99.90;;;;;;5075904;28;20172;-86
2021/11/30 06:04:55;;;;;;;19.83;16.07;;;6.90;99.90;;;;;;5074861;28;20175;-88
2021/11/30 06:07:21;;;;;;;18.03;15.17;;;6.80;99.90;;;;;;5085176;28;20232;-86
2021/11/30 06:09:46;;;;;;;17.97;14.90;;;6.80;99.90;;;;;;5092444;28;20225;-83
2021/11/30 06:12:13;;;;;;;17.17;15.23;;;6.90;99.90;;;;;;5096847;28;20168;-82
2021/11/30 06:14:42;;;;;;;19.37;15.53;;;7.00;99.90;;;;;;5096424;28;20196;-82
2021/11/30 06:17:16;;;;;;;20.87;16.63;;;7.00;99.90;;;;;;5097498;28;20183;-83
2021/11/30 06:19:42;;;;;;;18.37;14.67;;;7.10;99.90;;;;;;5098067;28;20163;-85
2021/11/30 06:22:11;;;;;;;15.23;13.47;;;7.10;99.90;;;;;;5097849;28;20163;-87
2021/11/30 06:24:40;;;;;;;16.30;14.70;;;7.10;99.90;;;;;;5093554;28;20184;-81
2021/11/30 06:27:17;;;;;;;17.60;14.50;;;7.10;99.90;;;;;;5078332;28;20187;-82
2021/11/30 06:29:48;;;;;;;15.37;13.77;;;7.20;99.90;;;;;;5078686;28;20194;-83
2021/11/30 06:32:13;;;;;;;16.70;13.80;;;7.20;99.90;;;;;;5087382;28;20144;-81
2021/11/30 06:34:41;;;;;;;15.70;14.10;;;7.20;99.90;;;;;;5093824;28;20164;-81
2021/11/30 06:37:08;;;;;;;16.73;14.20;;;7.30;99.90;;;;;;5095310;28;20196;-83
2021/11/30 06:39:38;;;;;;;15.70;14.03;;;7.40;99.90;;;;;;5097550;28;20164;-83
2021/11/30 06:42:11;;;;;;;16.67;14.87;;;7.30;99.90;;;;;;5078435;28;20176;-83
2021/11/30 06:44:46;;;;;;;16.00;14.23;;;7.40;99.90;;;;;;5072562;28;20165;-82
2021/11/30 06:47:12;;;;;;;17.03;13.77;;;7.40;99.90;;;;;;5072757;28;20587;-82
2021/11/30 06:49:38;;;;;;;17.80;15.03;;;7.40;99.90;;;;;;5072994;28;20168;-84
2021/11/30 06:52:04;;;;;;;14.13;12.70;;;7.40;99.90;;;;;;5072928;28;20616;-80
2021/11/30 06:54:30;;;;;;;15.77;14.13;;;7.40;99.90;;;;;;5073952;28;20683;-83
2021/11/30 06:56:56;;;;;;;15.90;13.80;;;7.30;99.90;;;;;;5075597;28;20171;-85
2021/11/30 06:59:24;;;;;;;16.10;13.80;;;7.50;99.90;;;;;;5074759;28;20204;-81
2021/11/30 07:01:50;;;;;;;15.83;14.03;;;7.50;99.90;;;;;;5072914;28;20620;-86
2021/11/30 07:04:17;;;;;;;16.93;15.20;;;7.70;99.90;;;;;;5072989;28;20180;-84
2021/11/30 07:14:34;;;;;;;15.87;14.17;;;7.70;99.90;;;;;;5082802;28;20176;-87
2021/11/30 07:17:00;;;;;;;17.47;14.70;;;7.80;99.90;;;;;;5083688;28;20172;-89
2021/11/30 07:19:29;;;;;;;15.20;13.70;;;7.80;99.90;;;;;;5083503;28;20294;-84
2021/11/30 07:21:55;;;;;;;14.83;13.33;;;7.90;99.90;;;;;;5075998;28;20176;-86
2021/11/30 07:24:22;;;;;;;15.13;13.63;;;8.00;99.90;;;;;;5078477;28;20204;-86
2021/11/30 07:26:47;;;;;;;13.80;12.43;;;8.00;99.90;;;;;;5062932;28;20188;-89
2021/11/30 07:29:14;;;;;;;13.87;11.77;;;8.00;99.90;;;;;;5054759;28;20169;-82
2021/11/30 07:31:43;;;;;;;12.20;10.73;;;8.00;99.90;;;;;;5054469;28;20169;-88
2021/11/30 07:34:09;;;;;;;12.50;11.17;;;8.20;99.90;;;;;;5053692;28;20181;-87
2021/11/30 07:36:37;;;;;;;12.00;10.63;;;8.10;99.90;;;;;;5052624;28;20639;-81
2021/11/30 07:39:05;;;;;;;12.37;10.07;;;8.10;99.90;;;;;;5044178;28;20288;-84
2021/11/30 07:41:35;;;;;;;16.20;9.87;;;8.10;99.90;;;;;;5053633;28;20556;-81
2021/11/30 07:44:00;;;;;;;10.10;9.07;;;8.10;99.90;;;;;;5071563;28;20165;-82
2021/11/30 07:46:27;;;;;;;9.90;8.90;;;8.20;99.90;;;;;;5077340;28;20169;-82
2021/11/30 07:48:53;;;;;;;9.13;8.23;;;8.40;99.90;;;;;;5084982;28;20173;-81
2021/11/30 07:51:18;;;;;;;10.97;8.50;;;8.30;99.90;;;;;;5069580;28;20180;-82
2021/11/30 07:53:45;;;;;;;9.43;8.43;;;8.30;99.90;;;;;;5071105;28;20228;-84
2021/11/30 07:56:12;;;;;;;9.77;8.07;;;8.30;99.90;;;;;;5066730;28;20645;-87
2021/11/30 07:58:39;;;;;;;10.33;9.20;;;8.40;99.90;;;;;;5062959;28;20251;-87
2021/11/30 08:01:06;;;;;;;11.10;8.60;;;8.40;99.90;;;;;;5061888;28;20177;-85
2021/11/30 08:03:31;;;;;;;10.47;9.00;;;8.40;99.90;;;;;;5060956;28;20193;-86
2021/11/30 08:05:57;;;;;;;9.43;8.27;;;8.40;99.90;;;;;;5062832;28;20203;-87
2021/11/30 08:08:30;;;;;;;9.93;8.67;;;8.40;99.90;;;;;;5060555;28;20195;-87
2021/11/30 08:10:55;;;;;;;9.43;8.40;;;8.50;99.90;;;;;;5046183;28;20268;-83
2021/11/30 08:13:25;;;;;;;10.00;8.37;;;8.60;99.90;;;;;;5045370;28;20238;-87
2021/11/30 08:15:53;;;;;;;11.80;9.17;;;8.50;99.90;;;;;;5059793;28;20519;-83
2021/11/30 08:18:19;;;;;;;11.40;8.63;;;8.60;99.90;;;;;;5059577;28;20212;-87
2021/11/30 08:20:46;;;;;;;11.53;8.63;;;8.60;99.90;;;;;;5066580;28;20184;-86
2021/11/30 08:23:14;;;;;;;10.30;8.80;;;8.70;99.90;;;;;;5059450;28;20177;-86
2021/11/30 08:25:40;;;;;;;9.80;8.07;;;8.70;99.90;;;;;;5040029;28;20535;-80
2021/11/30 08:28:07;;;;;;;10.97;8.47;;;8.70;99.90;;;;;;5056521;28;20165;-81
2021/11/30 08:30:39;;;;;;;10.43;8.70;;;8.70;99.90;;;;;;5056496;28;20176;-81
2021/11/30 08:33:04;;;;;;;9.90;8.47;;;8.70;99.90;;;;;;5058036;28;20701;-81
2021/11/30 08:35:30;;;;;;;11.63;9.77;;;8.70;99.90;;;;;;5055465;28;20196;-79
2021/11/30 08:37:57;;;;;;;11.63;9.40;;;8.60;99.90;;;;;;5054858;28;20258;-82
2021/11/30 08:40:25;;;;;;;11.27;10.07;;;8.80;99.90;;;;;;5054647;28;20181;-82
2021/11/30 08:42:51;;;;;;;13.40;9.47;;;8.80;99.90;;;;;;5051513;28;20630;-80
2021/11/30 08:45:16;;;;;;;11.63;10.17;;;8.90;99.90;;;;;;5034365;28;20240;-82
2021/11/30 08:47:42;;;;;;;12.30;9.97;;;8.90;99.90;;;;;;5037637;28;20162;-87
2021/11/30 08:50:15;;;;;;;12.07;10.00;;;9.00;99.90;;;;;;5042363;28;20550;-88
2021/11/30 08:52:42;;;;;;;16.57;10.70;;;9.00;99.90;;;;;;5046280;28;20169;-84
2021/11/30 08:55:14;;;;;;;12.37;11.03;;;8.90;99.90;;;;;;5064967;28;20196;-81
2021/11/30 08:57:40;;;;;;;12.97;9.70;;;9.00;99.90;;;;;;5040970;28;20217;-81
2021/11/30 09:00:10;;;;;;;13.03;10.93;;;9.10;99.90;;;;;;5035980;28;20499;-82
2021/11/30 09:02:36;;;;;;;16.27;12.23;;;9.00;99.90;;;;;;5040523;28;20171;-81
2021/11/30 09:05:05;;;;;;;16.50;13.40;;;9.00;99.90;;;;;;5055401;28;21016;-80
2021/11/30 09:07:32;;;;;;;11.93;10.60;;;9.10;99.90;;;;;;5054821;28;20185;-81
2021/11/30 09:09:57;;;;;;;13.10;11.30;;;9.20;99.90;;;;;;5058142;28;20169;-82
2021/11/30 09:12:26;;;;;;;13.57;11.03;;;9.10;99.90;;;;;;5054831;28;20546;-85
2021/11/30 09:14:53;;;;;;;13.57;10.70;;;9.10;99.90;;;;;;5056893;28;20184;-83
2021/11/30 09:17:20;;;;;;;13.83;10.93;;;9.20;99.90;;;;;;5056361;28;20173;-88
2021/11/30 09:19:46;;;;;;;14.20;10.80;;;9.20;99.90;;;;;;5054767;28;20176;-86
2021/11/30 09:22:12;;;;;;;13.40;10.30;;;9.30;99.90;;;;;;5055879;28;20236;-87
2021/11/30 09:24:37;;;;;;;12.83;9.63;;;9.30;99.90;;;;;;5056603;28;20161;-84
2021/11/30 09:27:04;;;;;;;12.87;10.07;;;9.40;99.90;;;;;;5056694;28;20173;-82
2021/11/30 09:29:30;;;;;;;14.17;9.73;;;9.40;99.90;;;;;;5061034;28;20220;-86
2021/11/30 09:31:56;;;;;;;11.70;9.77;;;9.60;99.90;;;;;;5068429;28;20170;-86
2021/11/30 09:34:25;;;;;;;9.77;8.77;;;9.60;99.90;;;;;;5068001;28;20212;-83
2021/11/30 09:36:54;;;;;;;12.77;11.30;;;9.60;99.90;;;;;;5064118;28;20204;-83
2021/11/30 09:39:24;;;;;;;13.73;10.17;;;9.60;99.90;;;;;;5049885;28;20287;-81
2021/11/30 09:41:51;;;;;;;14.23;10.87;;;9.60;99.90;;;;;;5065454;28;20153;-83
2021/11/30 09:44:17;;;;;;;12.30;9.23;;;9.60;99.90;;;;;;5089268;28;20180;-85
2021/11/30 09:46:50;;;;;;;11.67;8.53;;;9.70;99.90;;;;;;5098707;28;20183;-84
2021/11/30 09:49:19;;;;;;;10.90;8.30;;;9.80;99.90;;;;;;5097975;28;20239;-84
2021/11/30 09:51:45;;;;;;;9.80;7.17;;;9.70;99.90;;;;;;5097272;28;20169;-84
2021/11/30 09:54:14;;;;;;;8.23;7.20;;;9.70;99.90;;;;;;5090652;28;20176;-85
2021/11/30 09:56:58;;;;;;;11.23;7.87;;;9.70;99.90;;;;;;5079425;28;20304;-85
2021/11/30 09:59:27;;;;;;;11.70;8.33;;;9.80;99.90;;;;;;5083621;28;20219;-88
2021/11/30 10:01:55;;;;;;;11.63;7.93;;;9.80;99.90;;;;;;5079142;28;20651;-81
2021/11/30 10:04:22;;;;;;;12.33;9.13;;;9.80;99.90;;;;;;5077030;28;20165;-86
2021/11/30 10:06:47;;;;;;;9.73;8.57;;;9.80;99.90;;;;;;5083682;28;20196;-88
2021/11/30 10:09:23;;;;;;;17.80;13.73;;;9.80;99.90;;;;;;5073991;28;20181;-87
2021/11/30 10:11:59;;;;;;;8.57;7.67;;;9.80;99.90;;;;;;5075962;28;20145;-85
2021/11/30 10:14:35;;;;;;;10.90;9.80;;;9.80;99.90;;;;;;5078006;28;20168;-85
2021/11/30 10:17:16;;;;;;;11.17;7.90;;;9.80;99.90;;;;;;5077282;28;20172;-84
2021/11/30 10:19:49;;;;;;;14.37;7.90;;;9.80;99.90;;;;;;5075665;28;20185;-81
2021/11/30 10:22:41;;;;;;;11.03;8.03;;;9.80;99.90;;;;;;5074245;28;20183;-82
2021/11/30 10:25:11;;;;;;;11.60;10.40;;;9.90;99.90;;;;;;5070787;28;20169;-83
2021/11/30 10:27:58;;;;;;;13.30;10.70;;;9.90;99.90;;;;;;5062550;28;20187;-81
2021/11/30 10:30:30;;;;;;;15.27;10.53;;;9.90;99.90;;;;;;5061649;28;20160;-80
2021/11/30 10:32:58;;;;;;;10.57;8.57;;;9.90;99.90;;;;;;5058782;28;20172;-79
2021/11/30 10:35:27;;;;;;;12.53;9.23;;;9.90;99.90;;;;;;5064378;28;20169;-82
2021/11/30 10:37:56;;;;;;;9.67;8.10;;;10.00;99.90;;;;;;5066162;28;20196;-84
2021/11/30 10:40:26;;;;;;;10.60;7.80;;;10.00;99.90;;;;;;5067801;28;20191;-80
2021/11/30 10:42:58;;;;;;;11.63;8.20;;;10.00;99.90;;;;;;5088148;28;20267;-79
2021/11/30 10:45:29;;;;;;;11.13;7.97;;;10.10;99.90;;;;;;5080289;28;20195;-80
2021/11/30 10:48:22;;;;;;;8.53;7.57;;;10.10;99.90;;;;;;5076113;28;20160;-81
2021/11/30 10:50:59;;;;;;;9.17;8.13;;;10.10;99.90;;;;;;5068055;28;20187;-80
2021/11/30 10:53:33;;;;;;;16.07;9.60;;;10.10;99.90;;;;;;5074087;28;20156;-82
2021/11/30 10:56:04;;;;;;;13.63;10.07;;;10.10;99.90;;;;;;5073719;28;20172;-80
2021/11/30 10:58:36;;;;;;;16.57;11.50;;;10.10;99.90;;;;;;5073196;28;20208;-83
2021/11/30 11:01:14;;;;;;;34.87;20.37;;;10.20;99.90;;;;;;5075097;28;20213;-82
2021/11/30 11:03:46;;;;;;;13.00;8.47;;;10.10;99.90;;;;;;5074851;28;20180;-82
2021/11/30 11:06:35;;;;;;;10.47;8.03;;;10.10;99.90;;;;;;5074037;28;20233;-81
2021/11/30 11:09:10;;;;;;;14.37;8.73;;;10.10;99.90;;;;;;5059874;28;20656;-81
2021/11/30 11:11:39;;;;;;;8.87;7.50;;;10.20;99.90;;;;;;5051859;28;20180;-81
2021/11/30 11:14:24;;;;;;;10.90;7.43;;;10.20;99.90;;;;;;5053399;28;20201;-82
2021/11/30 11:17:01;;;;;;;9.13;7.83;;;10.20;99.90;;;;;;5053312;28;20161;-80
2021/11/30 11:19:42;;;;;;;11.83;9.13;;;10.10;99.90;;;;;;5057172;28;20725;-91
2021/11/30 11:22:18;;;;;;;17.90;10.60;;;10.30;99.90;;;;;;5044240;28;20209;-89
2021/11/30 11:24:50;;;;;;;30.60;21.87;;;10.20;99.90;;;;;;5057118;28;20709;-89
2021/11/30 11:27:16;;;;;;;41.00;22.13;;;10.30;99.90;;;;;;5058656;28;20244;-86
2021/11/30 11:29:43;;;;;;;11.90;9.73;;;10.20;99.90;;;;;;5042583;28;20188;-93
2021/11/30 11:32:10;;;;;;;12.07;8.90;;;10.20;99.90;;;;;;5060437;28;20172;-88
2021/11/30 11:34:38;;;;;;;9.37;6.80;;;10.30;99.90;;;;;;5058211;28;20188;-87
2021/11/30 11:37:09;;;;;;;10.60;8.87;;;10.30;99.90;;;;;;5060329;28;20192;-90
2021/11/30 11:39:35;;;;;;;11.47;8.37;;;10.30;99.90;;;;;;5067732;28;20241;-88
2021/11/30 11:42:04;;;;;;;9.63;7.77;;;10.30;99.90;;;;;;5072280;28;20165;-86
2021/11/30 11:44:30;;;;;;;9.77;8.77;;;10.30;99.90;;;;;;5089779;28;20164;-88
2021/11/30 11:47:08;;;;;;;11.57;9.03;;;10.30;99.90;;;;;;5072059;28;20601;-91
2021/11/30 11:49:41;;;;;;;13.37;8.80;;;10.40;99.90;;;;;;5075537;28;20176;-85
2021/11/30 11:52:26;;;;;;;11.77;9.17;;;10.40;99.90;;;;;;5067045;28;20180;-83
2021/11/30 11:55:01;;;;;;;11.27;7.93;;;10.40;99.90;;;;;;5070881;28;20182;-80
2021/11/30 11:57:28;;;;;;;12.43;8.03;;;10.40;99.90;;;;;;5076513;28;20315;-80
2021/11/30 11:59:54;;;;;;;9.63;8.60;;;10.40;99.90;;;;;;5076956;28;20259;-81
2021/11/30 12:02:24;;;;;;;11.07;8.70;;;10.50;99.90;;;;;;5079407;28;20200;-80
2021/11/30 12:05:10;;;;;;;9.97;8.47;;;10.40;99.90;;;;;;5079726;28;20531;-82
2021/11/30 12:08:02;;;;;;;9.57;8.37;;;10.50;99.90;;;;;;5075482;28;20243;-81
2021/11/30 12:10:30;;;;;;;11.30;8.70;;;10.30;99.90;;;;;;5076233;28;20163;-81
2021/11/30 12:12:59;;;;;;;9.20;7.87;;;10.30;99.90;;;;;;5074762;28;20682;-80
2021/11/30 12:15:34;;;;;;;10.83;7.67;;;10.40;99.90;;;;;;5075827;28;20160;-82
2021/11/30 12:18:31;;;;;;;8.10;7.30;;;10.30;99.90;;;;;;5075955;28;20832;-82
2021/11/30 12:21:20;;;;;;;10.60;8.07;;;10.30;99.90;;;;;;5076537;28;20160;-82
2021/11/30 12:23:56;;;;;;;9.63;7.67;;;10.30;99.90;;;;;;5075386;28;20247;-82
2021/11/30 12:26:42;;;;;;;8.07;7.10;;;10.30;99.90;;;;;;5074801;28;20160;-82
2021/11/30 12:29:27;;;;;;;9.10;7.80;;;10.30;99.90;;;;;;5075563;28;20497;-82
2021/11/30 12:31:56;;;;;;;10.80;7.70;;;10.30;99.90;;;;;;5074739;28;20195;-81
2021/11/30 12:34:37;;;;;;;9.77;8.00;;;10.30;99.90;;;;;;5074770;28;20164;-83
2021/11/30 12:37:06;;;;;;;11.77;8.07;;;10.30;99.90;;;;;;5074687;28;20671;-82
2021/11/30 12:40:06;;;;;;;11.43;7.73;;;10.30;99.90;;;;;;5061412;28;20166;-82
2021/11/30 12:42:41;;;;;;;9.00;7.97;;;10.30;99.90;;;;;;5057334;28;20607;-83
2021/11/30 12:45:14;;;;;;;10.23;8.33;;;10.20;99.90;;;;;;5056361;28;20214;-81
2021/11/30 12:47:41;;;;;;;12.43;8.40;;;10.20;99.90;;;;;;5055135;28;20166;-81
2021/11/30 12:50:23;;;;;;;9.87;8.70;;;10.20;99.90;;;;;;5056963;28;20157;-83
2021/11/30 12:53:00;;;;;;;14.73;8.80;;;10.20;99.90;;;;;;5055950;28;20183;-83
2021/11/30 12:55:40;;;;;;;10.17;8.77;;;10.20;99.90;;;;;;5054122;28;20164;-82
2021/11/30 12:58:06;;;;;;;9.93;8.07;;;10.20;99.90;;;;;;5070740;28;20200;-82
2021/11/30 13:00:32;;;;;;;11.50;8.67;;;10.40;99.90;;;;;;5053174;28;20656;-81
2021/11/30 13:03:21;;;;;;;11.73;9.67;;;10.30;99.90;;;;;;5055080;28;20533;-82
2021/11/30 13:05:54;;;;;;;12.73;9.77;;;10.30;99.90;;;;;;5054882;28;20288;-82
2021/11/30 13:08:21;;;;;;;12.83;9.23;;;10.30;99.90;;;;;;5053691;28;20632;-82